createdAt,value
2018-08-09T00:02:14.182Z,2.27
2018-08-09T00:04:48.527Z,2.10
2018-08-09T00:07:23.156Z,2.17
2018-08-09T00:09:57.596Z,2.20
2018-08-09T00:12:32.112Z,2.10
2018-08-09T00:15:06.848Z,2.10
2018-08-09T00:17:41.752Z,2.33
2018-08-09T00:20:16.320Z,2.40
2018-08-09T00:22:50.904Z,2.40
2018-08-09T00:25:25.580Z,2.57
2018-08-09T00:28:00.217Z,3.13
2018-08-09T00:30:34.719Z,2.83
2018-08-09T00:33:09.197Z,2.33
2018-08-09T00:35:43.563Z,2.47
2018-08-09T00:38:17.957Z,2.50
2018-08-09T00:40:52.598Z,2.47
2018-08-09T00:43:27.033Z,2.50
2018-08-09T00:46:01.653Z,2.20
2018-08-09T00:48:36.182Z,2.20
2018-08-09T00:51:10.645Z,2.07
2018-08-09T00:53:45.248Z,2.37
2018-08-09T00:56:19.717Z,2.42
2018-08-09T00:58:54.428Z,2.67
2018-08-09T01:01:29.020Z,2.70
2018-08-09T01:04:03.661Z,2.93
2018-08-09T01:06:38.150Z,2.90
2018-08-09T01:09:15.367Z,2.53
2018-08-09T01:11:50.044Z,2.93
2018-08-09T01:14:24.917Z,2.63
2018-08-09T01:16:59.818Z,2.50
2018-08-09T01:19:34.387Z,2.77
2018-08-09T01:22:08.997Z,2.80
2018-08-09T01:24:43.891Z,3.17
2018-08-09T01:27:18.452Z,2.90
2018-08-09T01:29:52.980Z,2.73
2018-08-09T01:32:27.463Z,2.80
2018-08-09T01:35:02.061Z,2.73
2018-08-09T01:37:36.443Z,3.20
2018-08-09T01:40:10.810Z,2.67
2018-08-09T01:42:56.682Z,2.90
2018-08-09T01:45:31.140Z,2.87
2018-08-09T01:48:05.691Z,2.67
2018-08-09T01:50:40.069Z,2.93
2018-08-09T01:53:20.989Z,3.00
2018-08-09T01:56:13.608Z,2.63
2018-08-09T01:58:48.592Z,2.70
2018-08-09T02:01:23.192Z,2.27
2018-08-09T02:03:57.858Z,2.90
2018-08-09T02:06:32.528Z,2.57
2018-08-09T02:09:08.905Z,2.80
2018-08-09T02:23:53.068Z,2.90
2018-08-09T02:26:44.392Z,3.03
2018-08-09T02:29:19.165Z,2.40
2018-08-09T02:31:53.753Z,2.80
2018-08-09T02:34:28.732Z,2.77
2018-08-09T02:37:03.120Z,3.17
2018-08-09T02:39:37.813Z,2.97
2018-08-09T02:42:12.487Z,2.87
2018-08-09T02:44:46.974Z,2.87
2018-08-09T02:47:21.494Z,2.73
2018-08-09T02:49:56.047Z,2.43
2018-08-09T02:52:30.534Z,2.77
2018-08-09T02:55:05.197Z,3.20
2018-08-09T02:57:40.227Z,3.57
2018-08-09T03:00:14.667Z,2.80
2018-08-09T03:02:49.185Z,3.60
2018-08-09T03:05:23.716Z,4.40
2018-08-09T03:07:58.145Z,3.83
2018-08-09T03:10:32.724Z,4.03
2018-08-09T03:13:07.105Z,3.60
2018-08-09T03:15:41.696Z,3.57
2018-08-09T03:18:16.297Z,3.60
2018-08-09T03:20:50.797Z,4.17
2018-08-09T03:23:25.583Z,3.73
2018-08-09T03:26:00.201Z,3.90
2018-08-09T03:28:35.009Z,3.87
2018-08-09T03:31:09.591Z,3.70
2018-08-09T03:34:01.492Z,3.97
2018-08-09T03:36:39.829Z,3.80
2018-08-09T03:39:14.494Z,4.27
2018-08-09T03:44:58.428Z,4.27
2018-08-09T03:47:32.964Z,4.67
2018-08-09T03:50:11.682Z,4.10
2018-08-09T03:52:54.174Z,4.87
2018-08-09T03:55:34.969Z,4.30
2018-08-09T03:58:21.876Z,4.57
2018-08-09T04:00:56.260Z,4.10
2018-08-09T04:03:30.753Z,4.07
2018-08-09T04:06:05.414Z,3.57
2018-08-09T04:08:39.984Z,4.27
2018-08-09T04:11:14.624Z,3.90
2018-08-09T04:13:49.257Z,4.17
2018-08-09T04:16:24.138Z,4.27
2018-08-09T04:18:58.734Z,3.73
2018-08-09T04:21:33.126Z,4.17
2018-08-09T04:24:07.744Z,4.17
2018-08-09T04:26:42.473Z,3.90
2018-08-09T04:29:16.768Z,4.00
2018-08-09T04:31:51.127Z,4.33
2018-08-09T04:34:37.812Z,4.30
2018-08-09T04:37:12.338Z,4.00
2018-08-09T04:39:46.899Z,4.20
2018-08-09T04:42:21.296Z,4.00
2018-08-09T04:44:55.740Z,3.87
2018-08-09T04:47:30.439Z,4.07
2018-08-09T04:50:05.607Z,4.00
2018-08-09T04:52:39.904Z,3.77
2018-08-09T04:55:14.317Z,3.60
2018-08-09T04:57:48.789Z,4.70
2018-08-09T05:00:23.551Z,4.03
2018-08-09T05:02:58.010Z,3.87
2018-08-09T05:05:32.593Z,4.30
2018-08-09T05:08:07.408Z,4.20
2018-08-09T05:10:48.584Z,4.33
2018-08-09T05:13:37.072Z,3.93
2018-08-09T05:16:11.641Z,3.77
2018-08-09T05:18:46.288Z,3.83
2018-08-09T05:21:21.024Z,3.90
2018-08-09T05:23:55.573Z,3.60
2018-08-09T05:26:30.240Z,4.33
2018-08-09T05:29:04.736Z,3.93
2018-08-09T05:31:39.493Z,3.73
2018-08-09T05:34:14.051Z,3.97
2018-08-09T05:36:48.413Z,4.27
2018-08-09T05:39:22.928Z,4.23
2018-08-09T05:41:57.432Z,4.20
2018-08-09T05:44:32.060Z,3.83
2018-08-09T05:47:06.529Z,4.07
2018-08-09T05:49:40.929Z,3.97
2018-08-09T05:52:15.344Z,4.27
2018-08-09T05:54:49.800Z,4.33
2018-08-09T05:57:24.374Z,4.40
2018-08-09T05:59:59.054Z,4.27
2018-08-09T06:02:34.018Z,4.80
2018-08-09T06:05:08.672Z,4.27
2018-08-09T06:07:43.214Z,4.80
2018-08-09T06:10:17.764Z,4.73
2018-08-09T06:12:52.124Z,4.23
2018-08-09T06:15:26.549Z,4.33
2018-08-09T06:18:01.152Z,4.00
2018-08-09T06:20:35.582Z,4.37
2018-08-09T06:23:10.092Z,4.22
2018-08-09T06:25:44.708Z,4.10
2018-08-09T06:28:19.197Z,3.47
2018-08-09T06:30:53.986Z,3.77
2018-08-09T06:33:28.641Z,3.57
2018-08-09T06:36:02.961Z,3.23
2018-08-09T06:38:37.821Z,3.30
2018-08-09T06:41:12.512Z,3.30
2018-08-09T06:43:47.397Z,3.23
2018-08-09T06:46:21.884Z,4.20
2018-08-09T06:48:56.281Z,3.93
2018-08-09T06:51:30.767Z,4.00
2018-08-09T06:54:14.969Z,3.40
2018-08-09T06:56:49.560Z,3.50
2018-08-09T06:59:24.197Z,3.60
2018-08-09T07:01:59.134Z,4.00
2018-08-09T07:04:33.869Z,3.60
2018-08-09T07:07:08.333Z,4.00
2018-08-09T07:09:42.793Z,3.90
2018-08-09T07:12:17.224Z,4.20
2018-08-09T07:14:52.164Z,4.43
2018-08-09T07:17:26.700Z,4.00
2018-08-09T07:20:01.127Z,5.27
2018-08-09T07:22:35.614Z,4.67
2018-08-09T07:25:10.261Z,4.80
2018-08-09T07:27:44.897Z,3.93
2018-08-09T07:30:19.745Z,4.07
2018-08-09T07:32:54.217Z,4.80
2018-08-09T07:35:28.818Z,3.77
2018-08-09T07:38:03.257Z,3.87
2018-08-09T07:40:37.857Z,3.83
2018-08-09T07:43:12.489Z,3.40
2018-08-09T07:45:47.008Z,4.10
2018-08-09T07:48:21.925Z,3.93
2018-08-09T07:50:57.076Z,3.72
2018-08-09T07:53:31.498Z,4.15
2018-08-09T07:56:05.910Z,4.10
2018-08-09T07:58:40.380Z,4.17
2018-08-09T08:01:15.013Z,4.07
2018-08-09T08:03:49.556Z,4.27
2018-08-09T08:06:24.096Z,4.37
2018-08-09T08:08:58.812Z,4.57
2018-08-09T08:11:33.288Z,4.00
2018-08-09T08:14:07.822Z,4.90
2018-08-09T08:16:42.217Z,4.47
2018-08-09T08:19:16.697Z,4.83
2018-08-09T08:21:51.101Z,5.20
2018-08-09T08:24:25.550Z,5.40
2018-08-09T08:27:03.279Z,5.53
2018-08-09T08:29:38.082Z,5.33
2018-08-09T08:32:12.701Z,4.50
2018-08-09T08:34:47.169Z,5.13
2018-08-09T08:37:21.818Z,5.50
2018-08-09T08:39:56.465Z,5.33
2018-08-09T08:42:31.046Z,5.50
2018-08-09T08:45:07.952Z,5.50
2018-08-09T08:47:43.411Z,4.60
2018-08-09T08:50:17.982Z,5.20
2018-08-09T08:52:52.317Z,5.33
2018-08-09T08:55:26.755Z,5.17
2018-08-09T08:58:01.216Z,5.30
2018-08-09T09:00:35.856Z,5.40
2018-08-09T09:03:10.289Z,4.83
2018-08-09T09:05:44.730Z,5.23
2018-08-09T09:08:19.681Z,5.40
2018-08-09T09:10:55.764Z,5.53
2018-08-09T09:13:30.242Z,5.40
2018-08-09T09:16:04.637Z,5.90
2018-08-09T09:18:38.973Z,6.00
2018-08-09T09:21:13.430Z,5.12
2018-08-09T09:23:48.099Z,5.50
2018-08-09T09:26:22.497Z,5.87
2018-08-09T09:28:57.096Z,5.60
2018-08-09T09:31:31.589Z,5.00
2018-08-09T09:34:06.245Z,5.40
2018-08-09T09:36:40.576Z,4.33
2018-08-09T09:39:14.985Z,5.50
2018-08-09T09:41:49.572Z,4.60
2018-08-09T09:44:23.948Z,5.20
2018-08-09T09:46:58.709Z,5.23
2018-08-09T09:49:33.309Z,5.07
2018-08-09T09:52:07.833Z,5.00
2018-08-09T09:54:42.489Z,5.33
2018-08-09T09:57:17.145Z,5.07
2018-08-09T09:59:51.740Z,5.47
2018-08-09T10:02:26.247Z,5.87
2018-08-09T10:05:00.804Z,4.23
2018-08-09T10:07:35.197Z,4.90
2018-08-09T10:10:10.417Z,4.73
2018-08-09T10:12:45.653Z,4.30
2018-08-09T10:15:20.221Z,4.30
2018-08-09T10:17:54.714Z,4.50
2018-08-09T10:20:29.150Z,4.05
2018-08-09T10:23:03.838Z,3.98
2018-08-09T10:25:38.393Z,4.25
2018-08-09T10:28:13.041Z,4.30
2018-08-09T10:30:47.501Z,3.92
2018-08-09T10:33:22.125Z,4.03
2018-08-09T10:35:56.713Z,4.80
2018-08-09T10:38:31.234Z,4.37
2018-08-09T10:41:05.903Z,5.13
2018-08-09T10:43:40.620Z,4.40
2018-08-09T10:52:15.103Z,4.40
2018-08-09T10:54:54.584Z,5.00
2018-08-09T10:57:28.998Z,4.90
2018-08-09T11:00:03.693Z,5.07
2018-08-09T11:05:56.940Z,5.20
2018-08-09T11:08:31.732Z,5.03
2018-08-09T11:11:14.280Z,5.73
2018-08-09T11:13:48.845Z,5.10
2018-08-09T11:16:23.516Z,5.50
2018-08-09T11:18:58.078Z,5.30
2018-08-09T11:21:32.597Z,5.30
2018-08-09T11:24:07.215Z,4.97
2018-08-09T11:26:41.788Z,5.13
2018-08-09T11:29:16.219Z,4.63
2018-08-09T11:31:50.760Z,4.57
2018-08-09T11:34:25.208Z,4.60
2018-08-09T11:36:59.838Z,5.30
2018-08-09T11:39:53.381Z,4.67
2018-08-09T11:42:34.776Z,4.80
2018-08-09T11:45:09.745Z,5.27
2018-08-09T11:47:44.196Z,4.73
2018-08-09T11:50:18.776Z,4.65
2018-08-09T11:52:53.404Z,5.57
2018-08-09T11:55:27.961Z,5.03
2018-08-09T11:58:02.974Z,4.37
2018-08-09T12:00:37.900Z,5.40
2018-08-09T12:03:12.454Z,5.62
2018-08-09T12:05:46.768Z,5.40
2018-08-09T12:08:21.341Z,5.27
2018-08-09T12:10:56.195Z,5.03
2018-08-09T12:13:30.975Z,5.33
2018-08-09T12:16:06.271Z,5.03
2018-08-09T12:18:40.706Z,5.23
2018-08-09T12:21:15.476Z,5.57
2018-08-09T12:23:50.520Z,5.70
2018-08-09T12:26:24.845Z,6.00
2018-08-09T12:28:59.265Z,5.10
2018-08-09T12:31:33.778Z,6.03
2018-08-09T12:34:08.288Z,5.30
2018-08-09T12:36:42.785Z,5.73
2018-08-09T12:39:17.217Z,5.37
2018-08-09T12:41:51.619Z,5.57
2018-08-09T12:44:26.077Z,5.50
2018-08-09T12:47:00.475Z,5.27
2018-08-09T12:49:35.392Z,5.67
2018-08-09T12:52:09.941Z,5.40
2018-08-09T12:54:44.553Z,5.53
2018-08-09T12:57:19.142Z,5.90
2018-08-09T12:59:54.004Z,5.57
2018-08-09T13:02:28.561Z,6.67
2018-08-09T13:05:03.048Z,6.85
2018-08-09T13:07:37.521Z,8.43
2018-08-09T13:10:13.105Z,8.43
2018-08-09T13:12:47.663Z,8.53
2018-08-09T13:15:22.156Z,7.93
2018-08-09T13:17:56.580Z,8.77
2018-08-09T13:20:31.273Z,7.60
2018-08-09T13:23:05.954Z,8.60
2018-08-09T13:25:40.425Z,8.93
2018-08-09T13:28:15.072Z,8.30
2018-08-09T13:30:49.757Z,9.00
2018-08-09T13:33:24.285Z,7.77
2018-08-09T13:35:58.694Z,7.40
2018-08-09T13:38:33.172Z,6.70
2018-08-09T13:41:07.770Z,6.00
2018-08-09T13:43:42.468Z,6.67
2018-08-09T13:46:17.000Z,6.97
2018-08-09T13:48:51.599Z,6.73
2018-08-09T13:51:26.252Z,6.77
2018-08-09T13:54:00.796Z,7.33
2018-08-09T13:56:35.389Z,7.53
2018-08-09T13:59:10.076Z,7.63
2018-08-09T14:01:44.776Z,6.93
2018-08-09T14:04:19.579Z,7.13
2018-08-09T14:06:54.068Z,6.80
2018-08-09T14:09:28.617Z,5.70
2018-08-09T14:12:03.036Z,6.13
2018-08-09T14:14:37.516Z,6.37
2018-08-09T14:17:12.282Z,5.93
2018-08-09T14:19:46.992Z,5.73
2018-08-09T14:22:21.520Z,5.00
2018-08-09T14:24:56.106Z,5.20
2018-08-09T14:27:31.118Z,4.70
2018-08-09T14:30:06.196Z,4.73
2018-08-09T14:32:40.755Z,4.90
2018-08-09T14:35:16.637Z,4.80
2018-08-09T14:37:51.615Z,4.73
2018-08-09T14:40:31.258Z,4.30
2018-08-09T14:43:08.689Z,4.30
2018-08-09T14:45:44.936Z,4.37
2018-08-09T14:48:23.731Z,4.27
2018-08-09T14:50:58.343Z,4.30
2018-08-09T14:53:32.934Z,4.20
2018-08-09T14:56:07.580Z,4.20
2018-08-09T14:58:43.282Z,3.67
2018-08-09T15:01:18.129Z,3.43
2018-08-09T15:03:52.841Z,4.10
2018-08-09T15:06:27.390Z,3.70
2018-08-09T15:09:02.037Z,3.73
2018-08-09T15:11:36.863Z,4.10
2018-08-09T15:14:31.277Z,4.10
2018-08-09T15:17:05.949Z,4.07
2018-08-09T15:19:40.704Z,4.20
2018-08-09T15:22:15.245Z,8.93
2018-08-09T15:24:49.855Z,3.50
2018-08-09T15:27:24.389Z,5.40
2018-08-09T15:29:58.994Z,6.70
2018-08-09T15:32:33.705Z,3.67
2018-08-09T15:35:08.213Z,3.27
2018-08-09T15:37:42.860Z,4.77
2018-08-09T15:40:17.372Z,4.03
2018-08-09T15:42:51.805Z,7.43
2018-08-09T15:45:26.476Z,11.63
2018-08-09T15:48:01.081Z,3.77
2018-08-09T15:50:35.677Z,3.57
2018-08-09T15:53:10.414Z,4.20
2018-08-09T15:55:44.980Z,3.67
2018-08-09T15:58:19.479Z,3.80
2018-08-09T16:00:54.071Z,3.47
2018-08-09T16:03:28.459Z,4.17
2018-08-09T16:06:03.058Z,3.70
2018-08-09T16:08:37.669Z,4.20
2018-08-09T16:11:12.241Z,3.80
2018-08-09T16:13:47.641Z,3.60
2018-08-09T16:16:22.187Z,3.65
2018-08-09T16:18:56.844Z,3.60
2018-08-09T16:21:31.620Z,4.10
2018-08-09T16:24:06.120Z,3.70
2018-08-09T16:26:40.711Z,3.77
2018-08-09T16:29:15.304Z,3.87
2018-08-09T16:31:49.824Z,3.80
2018-08-09T16:34:35.153Z,3.37
2018-08-09T16:37:09.733Z,3.30
2018-08-09T16:39:44.716Z,2.93
2018-08-09T16:42:19.246Z,3.20
2018-08-09T16:44:53.909Z,3.30
2018-08-09T16:47:28.708Z,2.97
2018-08-09T16:50:03.144Z,3.20
2018-08-09T16:52:37.764Z,3.17
2018-08-09T16:55:13.417Z,4.37
2018-08-09T16:57:47.950Z,2.90
2018-08-09T17:00:23.632Z,2.77
2018-08-09T17:02:58.128Z,4.13
2018-08-09T17:05:33.113Z,3.00
2018-08-09T17:08:07.754Z,3.27
2018-08-09T17:10:43.017Z,2.80
2018-08-09T17:13:17.604Z,3.87
2018-08-09T17:15:52.228Z,2.60
2018-08-09T17:18:26.661Z,2.97
2018-08-09T17:21:01.190Z,2.33
2018-08-09T17:23:35.718Z,2.87
2018-08-09T17:26:10.125Z,3.00
2018-08-09T17:28:44.784Z,2.50
2018-08-09T17:31:19.304Z,2.70
2018-08-09T17:33:57.101Z,2.43
2018-08-09T17:36:31.790Z,3.03
2018-08-09T17:39:10.598Z,2.40
2018-08-09T17:41:45.327Z,2.90
2018-08-09T17:44:19.995Z,2.63
2018-08-09T17:46:54.708Z,2.60
2018-08-09T17:49:29.225Z,3.17
2018-08-09T17:52:03.906Z,2.70
2018-08-09T17:54:38.480Z,2.63
2018-08-09T17:57:13.324Z,2.77
2018-08-09T17:59:47.898Z,3.10
2018-08-09T18:02:22.593Z,2.40
2018-08-09T18:04:57.373Z,3.30
2018-08-09T18:07:31.808Z,2.40
2018-08-09T18:10:10.178Z,2.65
2018-08-09T18:12:44.865Z,1.70
2018-08-09T18:15:20.020Z,2.13
2018-08-09T18:17:54.967Z,1.83
2018-08-09T18:20:36.832Z,2.00
2018-08-09T18:23:11.174Z,1.70
2018-08-09T18:25:45.697Z,2.22
2018-08-09T18:28:20.413Z,2.27
2018-08-09T18:30:57.072Z,2.10
2018-08-09T18:33:37.785Z,2.70
2018-08-09T18:36:13.812Z,2.00
2018-08-09T18:38:48.760Z,2.40
2018-08-09T18:41:27.358Z,2.30
2018-08-09T18:44:02.108Z,2.60
2018-08-09T18:46:36.754Z,2.63
2018-08-09T18:49:11.300Z,2.63
2018-08-09T18:51:45.816Z,2.43
2018-08-09T18:57:25.880Z,2.60
2018-08-09T19:00:03.141Z,2.73
2018-08-09T19:02:37.873Z,2.90
2018-08-09T19:05:12.232Z,2.60
2018-08-09T19:07:46.827Z,2.40
2018-08-09T19:10:27.380Z,2.50
2018-08-09T19:13:01.886Z,2.10
2018-08-09T19:15:36.497Z,2.23
2018-08-09T19:18:11.271Z,2.50
2018-08-09T19:20:45.708Z,2.57
2018-08-09T19:23:20.321Z,2.20
2018-08-09T19:25:54.973Z,2.20
2018-08-09T19:28:29.485Z,2.20
2018-08-09T19:31:04.205Z,2.27
2018-08-09T19:33:38.880Z,1.80
2018-08-09T19:36:13.776Z,1.80
2018-08-09T19:38:48.398Z,2.00
2018-08-09T19:41:23.221Z,1.80
2018-08-09T19:43:57.644Z,1.80
2018-08-09T19:46:32.173Z,1.83
2018-08-09T19:49:06.804Z,1.70
2018-08-09T19:51:41.302Z,1.83
2018-08-09T19:54:16.098Z,1.97
2018-08-09T19:56:50.724Z,2.10
2018-08-09T19:59:25.385Z,1.70
2018-08-09T20:01:59.780Z,2.10
2018-08-09T20:04:34.273Z,1.83
2018-08-09T20:07:09.071Z,1.90
2018-08-09T20:09:43.626Z,2.07
2018-08-09T20:12:18.025Z,1.83
2018-08-09T20:14:52.420Z,1.90
2018-08-09T20:17:26.944Z,2.30
2018-08-09T20:20:01.377Z,2.27
2018-08-09T20:22:35.956Z,2.90
2018-08-09T20:25:11.499Z,2.57
2018-08-09T20:27:46.698Z,2.60
2018-08-09T20:30:21.504Z,2.80
2018-08-09T20:32:56.093Z,2.23
2018-08-09T20:35:30.616Z,2.83
2018-08-09T20:38:05.265Z,2.50
2018-08-09T20:40:39.876Z,2.73
2018-08-09T20:43:14.481Z,2.90
2018-08-09T20:45:49.062Z,2.90
2018-08-09T20:48:23.712Z,3.10
2018-08-09T20:50:58.383Z,2.40
2018-08-09T20:53:33.170Z,2.30
2018-08-09T21:02:12.217Z,2.67
2018-08-09T21:04:47.016Z,3.40
2018-08-09T21:07:21.560Z,3.00
2018-08-09T21:09:56.038Z,3.00
2018-08-09T21:12:30.708Z,2.10
2018-08-09T21:15:06.152Z,2.13
2018-08-09T21:17:40.948Z,2.00
2018-08-09T21:20:15.592Z,1.70
2018-08-09T21:22:50.644Z,1.73
2018-08-09T21:25:25.184Z,2.20
2018-08-09T21:27:59.845Z,1.77
2018-08-09T21:30:34.461Z,1.67
2018-08-09T21:33:09.116Z,1.50
2018-08-09T21:35:43.760Z,1.20
2018-08-09T21:38:18.340Z,1.17
2018-08-09T21:40:52.896Z,1.17
2018-08-09T21:43:27.461Z,1.20
2018-08-09T21:46:01.928Z,1.30
2018-08-09T21:48:36.375Z,1.80
2018-08-09T21:51:10.932Z,1.83
2018-08-09T21:56:45.656Z,1.50
2018-08-09T21:59:20.131Z,1.53
2018-08-09T22:01:54.600Z,1.47
2018-08-09T22:04:29.328Z,1.50
2018-08-09T22:07:09.411Z,1.50
2018-08-09T22:09:49.308Z,1.40
2018-08-09T22:12:29.228Z,1.40
2018-08-09T22:15:09.664Z,1.40
2018-08-09T22:17:49.464Z,1.43
2018-08-09T22:20:29.354Z,1.80
2018-08-09T22:23:03.877Z,2.17
2018-08-09T22:25:38.292Z,1.10
2018-08-09T22:28:12.720Z,1.00
2018-08-09T22:30:47.265Z,1.10
2018-08-09T22:33:22.190Z,1.27
2018-08-09T22:35:56.996Z,1.47
2018-08-09T22:38:32.310Z,1.67
2018-08-09T22:41:06.851Z,1.60
2018-08-09T22:43:41.388Z,2.17
2018-08-09T22:46:16.092Z,2.30
2018-08-09T22:48:50.568Z,2.10
2018-08-09T22:51:25.258Z,2.50
2018-08-09T22:53:59.750Z,2.00
2018-08-09T22:56:34.160Z,2.20
2018-08-09T22:59:08.768Z,2.13
2018-08-09T23:01:43.389Z,2.00
2018-08-09T23:04:17.984Z,2.03
2018-08-09T23:06:52.592Z,2.27
2018-08-09T23:09:27.213Z,2.10
2018-08-09T23:12:01.809Z,2.20
2018-08-09T23:14:36.628Z,2.10
2018-08-09T23:17:11.316Z,2.60
2018-08-09T23:19:45.928Z,2.20
2018-08-09T23:22:20.369Z,2.83
2018-08-09T23:24:54.824Z,2.90
2018-08-09T23:27:29.286Z,2.20
2018-08-09T23:30:04.753Z,2.40
2018-08-09T23:32:39.313Z,2.50
2018-08-09T23:35:14.100Z,2.50
2018-08-09T23:37:48.570Z,2.23
2018-08-09T23:40:23.444Z,2.60
2018-08-09T23:42:58.068Z,2.80
2018-08-09T23:45:32.633Z,3.63
2018-08-09T23:48:07.228Z,3.83
2018-08-09T23:50:41.709Z,3.87
2018-08-09T23:53:16.556Z,4.50
2018-08-09T23:55:51.149Z,5.10
2018-08-09T23:58:25.711Z,4.50
